Nearby METAR Reports

 

KSJC - San Jose, California, USA
Distance from station: NE 14km
Updated: 2020-01-24 09:53
Fog, Overcast
Fog, Overcast
 Wind from calm
Wind: Calm
Temperature: 9°C
Dew Point: 9°C
Humidity: 100%
Barometer: 1022.7 hPa
Summary: Fog
Clouds: Overcast
Visibility: 0.1 km
Cloud details: Overcast 30 m
2020/01/24 15:53 KSJC 241553Z 00000KT 1/16SM R30L/1200V1400FT FG VV001 09/09 A3020 RMK AO2 SLP226 T00890089
KNUQ - Moffett Nas/Mtn, California, USA
Distance from station: N 14km
Updated: 2019-11-21 10:56
NOT Current

 
Barometer: 1011.2 hPa
2019/11/21 16:56 KNUQ 211656Z AUTO A2986 RMK AO2 SLP116 PWINO $
 
KPAO - Palo Alto, California, USA
Distance from station: NNW 23km
Updated: 2020-01-24 09:47
Fog, Overcast
Fog, Overcast
 Wind from calm
Wind: Calm
Temperature: 6°C
Dew Point: 6°C
Humidity: 100%
Barometer: 1022.7 hPa
Summary: Fog
Clouds: Overcast
Visibility: 0.2 km
Cloud details: Overcast 30 m
2020/01/24 15:47 KPAO 241547Z 00000KT 1/8SM FG VV001 06/06 A3020
KRHV - San Jose/Reid, California, USA
Distance from station: ENE 19km
Updated: 2020-01-24 09:47
Fog, Mostly cloudy
Fog, Mostly cloudy
 Wind from calm
Wind: Calm
Temperature: 8°C
Dew Point: 7°C
Humidity: 93%
Barometer: 1022.7 hPa
Summary: Fog
Clouds: Mostly cloudy
Visibility: 0.2 km
Cloud details: Mostly cloudy 30 m
2020/01/24 15:47 KRHV 241547Z 00000KT 1/8SM FG BKN001 08/07 A3020
 
KOAK - Oakland, California, USA
Distance from station: NNW 50km
Updated: 2020-01-24 09:53
Mist, Overcast
Mist, Overcast
 Wind from SE
Wind: SE 6 km/h
Temperature: 11°C
Dew Point: 9°C
Humidity: 88%
Barometer: 1022.7 hPa
Summary: Mist
Clouds: Overcast
Visibility: 8 km
Cloud details: Overcast 640 m
2020/01/24 15:53 KOAK 241553Z 14003KT 5SM BR OVC021 11/09 A3020 RMK AO2 SLP224 T01110089
KSQL - San Carlos Airpo, California, USA
Distance from station: NW 34km
Updated: 2020-01-24 09:58
Overcast
Overcast
 Wind from calm
Wind: Calm
Temperature: 9°C
Dew Point: 9°C
Humidity: 100%
Barometer: 1022.7 hPa
Clouds: Overcast
Visibility: 16 km
Cloud details: Overcast 701 m
2020/01/24 15:58 KSQL 241558Z 00000KT 10SM OVC023 09/09 A3020
 
KSFO - San Francisco, California, USA
Distance from station: NW 49km
Updated: 2020-01-24 09:56
Mostly cloudy
Mostly cloudy
 Wind from calm
Wind: Calm
Temperature: 12°C
Dew Point: 9°C
Humidity: 82%
Barometer: 1022.4 hPa
Clouds: Mostly cloudy
Visibility: 16 km
Cloud details: Mostly cloudy 518 m
Mostly cloudy 762 m
2020/01/24 15:56 KSFO 241556Z 00000KT 10SM BKN017 BKN025 12/09 A3019 RMK AO2 SLP221 T01170094
KE16 - San Martin, California, USA
Distance from station: ESE 43km
Updated: 2019-11-14 03:35
NOT Current
Overcast
Overcast
 Wind from SE
Wind: SE 11 km/h
Temperature: 12°C
Dew Point: 10°C
Humidity: 88%
Barometer: 1017.6 hPa
Clouds: Overcast
Visibility: 16 km
Cloud details: Overcast 427 m
2019/11/14 09:35 KE16 140935Z AUTO 13006KT 10SM OVC014 12/10 A3005 RMK AO2
 
KWVI - Watsonville, California, USA
Distance from station: SSE 44km
Updated: 2020-01-24 09:53
Clear
Clear
 Wind from calm
Wind: Calm
Temperature: 8°C
Dew Point: 7°C
Humidity: 93%
Barometer: 1022 hPa
Clouds: Clear
Visibility: 11 km
2020/01/24 15:53 KWVI 241553Z AUTO 00000KT 7SM CLR 08/07 A3018 RMK AO2 SLP220 T00780072
KHAF - Half Moon Bay, California, USA
Distance from station: WNW 50km
Updated: 2020-01-24 09:55
Partly cloudy
Partly cloudy
 Wind from calm
Wind: Calm
Temperature: 8°C
Dew Point: 7°C
Humidity: 93%
Barometer: 1022.4 hPa
Clouds: Partly cloudy
Visibility: 11 km
Cloud details: Partly cloudy 640 m
2020/01/24 15:55 KHAF 241555Z AUTO 00000KT 7SM SCT021 08/07 A3019 RMK AO2
 
KHWD - Hayward, California, USA
Distance from station: N 44km
Updated: 2020-01-24 09:54
Overcast
Overcast
 Wind from calm
Wind: Calm
Temperature: 8°C
Dew Point: 7°C
Humidity: 93%
Barometer: 1022.4 hPa
Clouds: Overcast
Visibility: 11 km
Cloud details: Overcast 640 m
2020/01/24 15:54 KHWD 241554Z 00000KT 7SM OVC021 08/07 A3019 RMK AO2 SLP233 T00830072
KLVK - Livermore, California, USA
Distance from station: NNE 51km
Updated: 2020-01-24 09:53
Fog, Overcast
Fog, Overcast
 Wind from calm
Wind: Calm
Temperature: 7°C
Dew Point: 7°C
Humidity: 100%
Barometer: 1022.4 hPa
Summary: Fog
Clouds: Overcast
Visibility: 0.4 km
Cloud details: Overcast 61 m
2020/01/24 15:53 KLVK 241553Z 00000KT M1/4SM FG VV002 07/07 A3019 RMK AO2 SLP223 T00670067